Time;durP1;ratioP1;P1;durP2;ratioP2;P2;SDS_P1;SDS_P2;PMS_P1;PMS_P2;Temp;Humidity;BMP_temperature;BMP_pressure;BME280_temperature;BME280_humidity;BME280_pressure;Samples;Min_cycle;Max_cycle;Signal;HPM_P1;HPM_P2
2022/09/03 00:01:08;;;;;;;4.30;1.70;;;;;;;;;;5037900;28;20064;-69
2022/09/03 00:03:38;;;;;;;3.67;1.30;;;;;;;;;;5040068;28;20013;-71
2022/09/03 00:06:07;;;;;;;2.53;1.30;;;;;;;;;;5039792;28;20030;-71
2022/09/03 00:08:40;;;;;;;3.97;1.35;;;;;;;;;;5035760;28;20135;-69
2022/09/03 00:11:17;;;;;;;4.90;1.35;;;;;;;;;;5045922;28;20071;-71
2022/09/03 00:13:57;;;;;;;3.00;1.30;;;;;;;;;;5047618;28;20479;-70
2022/09/03 00:16:25;;;;;;;2.30;1.50;;;;;;;;;;5039975;28;20021;-71
2022/09/03 00:18:53;;;;;;;3.50;1.60;;;;;;;;;;5051109;28;20017;-71
2022/09/03 00:21:34;;;;;;;4.40;1.50;;;;;;;;;;5047979;28;20017;-68
2022/09/03 00:24:02;;;;;;;1.15;1.00;;;;;;;;;;5046669;28;20025;-69
2022/09/03 00:26:33;;;;;;;2.58;1.52;;;;;;;;;;5038152;28;20510;-69
2022/09/03 00:29:02;;;;;;;4.05;1.40;;;;;;;;;;5035396;28;20033;-70
2022/09/03 00:31:37;;;;;;;4.88;1.70;;;;;;;;;;5036675;28;20086;-70
2022/09/03 00:34:25;;;;;;;1.88;1.38;;;;;;;;;;5040133;28;20025;-69
2022/09/03 00:36:52;;;;;;;3.38;1.52;;;;;;;;;;5047414;28;20088;-70
2022/09/03 00:39:20;;;;;;;1.63;1.30;;;;;;;;;;5049747;28;20021;-70
2022/09/03 00:41:56;;;;;;;2.22;1.45;;;;;;;;;;5048210;28;20052;-70
2022/09/03 00:44:35;;;;;;;2.20;1.40;;;;;;;;;;5043298;28;20075;-69
2022/09/03 00:47:01;;;;;;;2.25;1.20;;;;;;;;;;5037536;28;20022;-69
2022/09/03 00:49:30;;;;;;;3.08;1.20;;;;;;;;;;5038513;28;20082;-68
2022/09/03 00:52:01;;;;;;;1.70;1.15;;;;;;;;;;5048116;28;20032;-71
2022/09/03 00:54:49;;;;;;;2.33;1.67;;;;;;;;;;5041145;28;20432;-68
2022/09/03 00:57:15;;;;;;;1.95;1.30;;;;;;;;;;5039254;28;20017;-69
2022/09/03 00:59:50;;;;;;;2.50;1.35;;;;;;;;;;5032949;28;20023;-69
2022/09/03 01:02:27;;;;;;;7.55;5.10;;;;;;;;;;5036017;28;20060;-70
2022/09/03 01:04:53;;;;;;;79.30;43.40;;;;;;;;;;5039042;28;20402;-71
2022/09/03 01:07:26;;;;;;;24.48;11.15;;;;;;;;;;5034767;28;20079;-71
2022/09/03 01:10:05;;;;;;;412.92;201.68;;;;;;;;;;5039715;28;20025;-70
2022/09/03 01:12:37;;;;;;;86.78;37.17;;;;;;;;;;5042796;28;20535;-68
2022/09/03 01:15:12;;;;;;;33.72;15.15;;;;;;;;;;5040248;28;20033;-71
2022/09/03 01:17:56;;;;;;;25.35;10.70;;;;;;;;;;5034479;28;20136;-70
2022/09/03 01:20:27;;;;;;;60.35;26.25;;;;;;;;;;5043700;28;20048;-70
2022/09/03 01:23:23;;;;;;;6.05;3.28;;;;;;;;;;5043753;28;20081;-69
2022/09/03 01:26:03;;;;;;;6.05;2.08;;;;;;;;;;4974683;28;20096;-68
2022/09/03 01:28:39;;;;;;;7.15;3.50;;;;;;;;;;5034088;28;20013;-71
2022/09/03 01:31:11;;;;;;;50.88;21.85;;;;;;;;;;5035980;28;20025;-69
2022/09/03 01:33:40;;;;;;;283.30;128.05;;;;;;;;;;5037048;28;20083;-70
2022/09/03 01:36:06;;;;;;;28.23;13.82;;;;;;;;;;5039028;28;20025;-69
2022/09/03 01:38:52;;;;;;;30.52;15.07;;;;;;;;;;5034038;28;20053;-70
2022/09/03 01:44:31;;;;;;;9.10;3.53;;;;;;;;;;5043805;28;20061;-70
2022/09/03 01:47:13;;;;;;;18.75;4.90;;;;;;;;;;5036567;28;20027;-70
2022/09/03 01:49:58;;;;;;;5.65;2.40;;;;;;;;;;5036830;28;20449;-70
2022/09/03 01:52:37;;;;;;;6.97;2.80;;;;;;;;;;5047050;28;20438;-69
2022/09/03 01:55:02;;;;;;;9.68;2.55;;;;;;;;;;5039601;28;20048;-71
2022/09/03 01:57:43;;;;;;;4.40;2.30;;;;;;;;;;5037976;28;20471;-70
2022/09/03 02:00:12;;;;;;;6.53;2.13;;;;;;;;;;5032136;28;20032;-70
2022/09/03 02:02:39;;;;;;;3.83;2.00;;;;;;;;;;5037653;28;20017;-69
2022/09/03 02:05:17;;;;;;;3.00;1.63;;;;;;;;;;5040629;28;20024;-70
2022/09/03 02:07:46;;;;;;;4.72;1.92;;;;;;;;;;5033413;28;20025;-69
2022/09/03 02:10:14;;;;;;;4.40;1.58;;;;;;;;;;5041323;28;20029;-70
2022/09/03 02:12:43;;;;;;;3.20;1.30;;;;;;;;;;5046684;28;20024;-70
2022/09/03 02:15:12;;;;;;;2.40;1.95;;;;;;;;;;5042668;28;20387;-69
2022/09/03 02:17:39;;;;;;;2.67;1.85;;;;;;;;;;5048410;28;20029;-71
2022/09/03 02:20:10;;;;;;;2.97;1.92;;;;;;;;;;5054511;28;20104;-70
2022/09/03 02:22:36;;;;;;;2.25;1.85;;;;;;;;;;5047285;28;20025;-70
2022/09/03 02:25:02;;;;;;;3.83;1.80;;;;;;;;;;5039806;28;20026;-70
2022/09/03 02:27:28;;;;;;;2.00;1.80;;;;;;;;;;5038325;28;20141;-70
2022/09/03 02:29:54;;;;;;;3.45;1.80;;;;;;;;;;5032894;28;20029;-71
2022/09/03 02:32:20;;;;;;;3.88;1.75;;;;;;;;;;5035331;28;20091;-69
2022/09/03 02:34:47;;;;;;;3.28;2.03;;;;;;;;;;5044203;28;20017;-73
2022/09/03 02:37:17;;;;;;;3.90;1.80;;;;;;;;;;5044816;28;20021;-70
2022/09/03 02:39:43;;;;;;;2.30;1.63;;;;;;;;;;5036394;28;20051;-70
2022/09/03 02:42:10;;;;;;;3.58;1.98;;;;;;;;;;5048279;28;20047;-69
2022/09/03 02:44:38;;;;;;;2.67;1.65;;;;;;;;;;5039881;28;20490;-69
2022/09/03 02:47:06;;;;;;;3.13;1.83;;;;;;;;;;5036494;28;20104;-69
2022/09/03 02:49:33;;;;;;;5.07;1.92;;;;;;;;;;5036609;28;20017;-69
2022/09/03 02:52:00;;;;;;;5.43;1.63;;;;;;;;;;5047254;28;20052;-68
2022/09/03 02:54:32;;;;;;;6.97;1.65;;;;;;;;;;5040586;28;20095;-70
2022/09/03 02:56:58;;;;;;;4.45;1.77;;;;;;;;;;5035945;28;20113;-68
2022/09/03 02:59:27;;;;;;;3.42;1.55;;;;;;;;;;5034904;28;20032;-68
2022/09/03 03:01:53;;;;;;;3.85;2.03;;;;;;;;;;5038616;28;20026;-69
2022/09/03 03:04:19;;;;;;;3.97;1.73;;;;;;;;;;5044160;28;20021;-69
2022/09/03 03:06:45;;;;;;;5.30;2.08;;;;;;;;;;5037770;28;20021;-69
2022/09/03 03:09:11;;;;;;;3.42;1.85;;;;;;;;;;5038166;28;20032;-70
2022/09/03 03:11:37;;;;;;;2.42;2.03;;;;;;;;;;5051369;28;20028;-69
2022/09/03 03:14:03;;;;;;;4.22;1.73;;;;;;;;;;5047775;28;20491;-70
2022/09/03 03:16:29;;;;;;;2.75;1.90;;;;;;;;;;5042004;28;20049;-71
2022/09/03 03:18:56;;;;;;;3.03;1.65;;;;;;;;;;5052207;28;20025;-71
2022/09/03 03:21:22;;;;;;;3.60;2.03;;;;;;;;;;5050358;28;20498;-69
2022/09/03 03:23:48;;;;;;;3.25;2.00;;;;;;;;;;5047274;28;20020;-68
2022/09/03 03:26:18;;;;;;;3.45;2.00;;;;;;;;;;5040544;28;20053;-71
2022/09/03 03:28:45;;;;;;;3.30;1.85;;;;;;;;;;5035171;28;20029;-67
2022/09/03 03:31:16;;;;;;;4.57;2.40;;;;;;;;;;5036886;28;20024;-70
2022/09/03 03:33:42;;;;;;;2.95;2.10;;;;;;;;;;5041689;28;20536;-69
2022/09/03 03:36:13;;;;;;;4.15;1.80;;;;;;;;;;5047321;28;20020;-69
2022/09/03 03:38:39;;;;;;;5.28;2.03;;;;;;;;;;5051900;28;20029;-70
2022/09/03 03:41:10;;;;;;;3.30;1.75;;;;;;;;;;5049980;28;20088;-68
2022/09/03 03:43:36;;;;;;;4.22;2.20;;;;;;;;;;5048173;28;20394;-70
2022/09/03 03:46:02;;;;;;;3.72;2.05;;;;;;;;;;5041738;28;20364;-69
2022/09/03 03:48:28;;;;;;;5.40;1.45;;;;;;;;;;5036034;28;20113;-68
2022/09/03 03:50:54;;;;;;;3.80;2.40;;;;;;;;;;5045895;28;20112;-71
2022/09/03 03:53:20;;;;;;;2.22;1.67;;;;;;;;;;5046951;28;20395;-68
2022/09/03 03:55:55;;;;;;;2.25;1.73;;;;;;;;;;5043868;28;20013;-67
2022/09/03 03:58:22;;;;;;;3.03;1.75;;;;;;;;;;5035865;28;20032;-70
2022/09/03 04:00:48;;;;;;;3.70;2.35;;;;;;;;;;5035985;28;20494;-68
2022/09/03 04:03:14;;;;;;;5.97;2.20;;;;;;;;;;5040369;28;20036;-69
2022/09/03 04:05:40;;;;;;;3.03;1.95;;;;;;;;;;5039854;28;20022;-69
2022/09/03 04:08:06;;;;;;;1.90;1.70;;;;;;;;;;5035556;28;20026;-69
2022/09/03 04:10:33;;;;;;;3.03;2.20;;;;;;;;;;5046413;28;20025;-69
2022/09/03 04:12:59;;;;;;;4.40;2.50;;;;;;;;;;5044523;28;20045;-69
2022/09/03 04:15:26;;;;;;;3.75;2.35;;;;;;;;;;5041385;28;20370;-69
2022/09/03 04:17:54;;;;;;;5.20;2.03;;;;;;;;;;5049615;28;20388;-68
2022/09/03 04:20:20;;;;;;;2.60;1.77;;;;;;;;;;5053165;28;20017;-70
2022/09/03 04:22:46;;;;;;;4.68;2.25;;;;;;;;;;5045655;28;20071;-69
2022/09/03 04:25:12;;;;;;;3.00;1.95;;;;;;;;;;5042530;28;20033;-68
2022/09/03 04:27:38;;;;;;;4.90;2.15;;;;;;;;;;5038585;28;20386;-70
2022/09/03 04:30:04;;;;;;;5.75;1.85;;;;;;;;;;5034059;28;20033;-68
2022/09/03 04:35:15;;;;;;;161.02;73.53;;;;;;;;;;5043606;28;20040;-70
2022/09/03 04:37:41;;;;;;;523.83;286.30;;;;;;;;;;5034901;28;20025;-68
2022/09/03 04:40:07;;;;;;;192.10;79.65;;;;;;;;;;5042390;28;20051;-70
2022/09/03 04:42:33;;;;;;;343.17;146.35;;;;;;;;;;5047297;28;20025;-70
2022/09/03 04:45:00;;;;;;;198.68;88.25;;;;;;;;;;5040834;28;20024;-71
2022/09/03 04:47:26;;;;;;;71.93;28.27;;;;;;;;;;5038557;28;20483;-71
2022/09/03 04:49:53;;;;;;;8.50;3.75;;;;;;;;;;5040564;28;20024;-70
2022/09/03 04:52:19;;;;;;;26.33;10.27;;;;;;;;;;5048885;28;20079;-71
2022/09/03 04:54:45;;;;;;;11.02;4.57;;;;;;;;;;5040690;28;20033;-71
2022/09/03 04:57:12;;;;;;;10.77;4.88;;;;;;;;;;5039165;28;20017;-71
2022/09/03 04:59:39;;;;;;;2.50;1.98;;;;;;;;;;5034106;28;20112;-70
2022/09/03 05:02:05;;;;;;;9.65;1.70;;;;;;;;;;5036362;28;20546;-69
2022/09/03 05:04:31;;;;;;;3.58;1.70;;;;;;;;;;5043245;28;20052;-70
2022/09/03 05:06:57;;;;;;;2.60;1.50;;;;;;;;;;5033903;28;20025;-70
2022/09/03 05:09:23;;;;;;;61.72;32.13;;;;;;;;;;5036255;28;20028;-69
2022/09/03 05:11:49;;;;;;;84.90;38.50;;;;;;;;;;5049164;28;20060;-68
2022/09/03 05:14:15;;;;;;;55.05;25.15;;;;;;;;;;5043689;28;20056;-69
2022/09/03 05:16:41;;;;;;;3.97;1.52;;;;;;;;;;5041378;28;20093;-70
2022/09/03 05:19:08;;;;;;;4.65;1.58;;;;;;;;;;5049076;28;20021;-70
2022/09/03 05:21:34;;;;;;;3.13;1.95;;;;;;;;;;5048509;28;20043;-69
2022/09/03 05:24:01;;;;;;;7.65;4.72;;;;;;;;;;5045486;28;20024;-67
2022/09/03 05:26:29;;;;;;;10.02;3.70;;;;;;;;;;5037242;28;20029;-71
2022/09/03 05:28:56;;;;;;;24.38;11.27;;;;;;;;;;5031982;28;20033;-71
2022/09/03 05:31:25;;;;;;;5.18;2.15;;;;;;;;;;5036327;28;20083;-69
2022/09/03 05:33:52;;;;;;;8.25;2.72;;;;;;;;;;5038440;28;20025;-69
2022/09/03 05:36:21;;;;;;;21.35;7.03;;;;;;;;;;5046438;28;20013;-71
2022/09/03 05:38:47;;;;;;;7.35;3.03;;;;;;;;;;5048476;28;20406;-69
2022/09/03 05:41:13;;;;;;;6.75;2.85;;;;;;;;;;5047760;28;20021;-71
2022/09/03 05:43:40;;;;;;;3.50;1.67;;;;;;;;;;5044554;28;20021;-71
2022/09/03 05:46:08;;;;;;;4.07;1.60;;;;;;;;;;5038873;28;20025;-68
2022/09/03 05:48:35;;;;;;;2.78;1.48;;;;;;;;;;5034225;28;20028;-69
2022/09/03 05:51:08;;;;;;;2.40;1.75;;;;;;;;;;5044912;28;20021;-70
2022/09/03 05:53:35;;;;;;;2.88;1.52;;;;;;;;;;5036350;28;20017;-71
2022/09/03 05:56:02;;;;;;;4.35;1.42;;;;;;;;;;5039432;28;20068;-71
2022/09/03 05:58:32;;;;;;;3.50;1.67;;;;;;;;;;5024106;28;20031;-71
2022/09/03 06:00:58;;;;;;;2.47;1.00;;;;;;;;;;5044994;28;20029;-70
2022/09/03 06:03:24;;;;;;;4.57;1.85;;;;;;;;;;5045188;28;20542;-69
2022/09/03 06:05:51;;;;;;;2.38;1.45;;;;;;;;;;5039262;28;20388;-71
2022/09/03 06:08:17;;;;;;;1.98;0.90;;;;;;;;;;5049245;28;20025;-69
2022/09/03 06:10:43;;;;;;;2.45;1.35;;;;;;;;;;5049755;28;20016;-71
2022/09/03 06:13:10;;;;;;;1.48;1.10;;;;;;;;;;5042813;28;20475;-70
2022/09/03 06:15:36;;;;;;;14.05;9.60;;;;;;;;;;5037899;28;20109;-69
2022/09/03 06:18:02;;;;;;;5.40;1.83;;;;;;;;;;5031893;28;20108;-70
2022/09/03 06:20:28;;;;;;;2.05;1.30;;;;;;;;;;5043411;28;20052;-70
2022/09/03 06:22:57;;;;;;;2.47;1.55;;;;;;;;;;5042708;28;20056;-70
2022/09/03 06:25:23;;;;;;;34.00;16.70;;;;;;;;;;5041776;28;20455;-70
2022/09/03 06:27:49;;;;;;;4.60;2.28;;;;;;;;;;5033676;28;20068;-71
2022/09/03 06:30:15;;;;;;;24.60;9.55;;;;;;;;;;5032157;28;20033;-70
2022/09/03 06:32:45;;;;;;;3.58;1.00;;;;;;;;;;5037658;28;20124;-71
2022/09/03 06:35:11;;;;;;;5.65;2.03;;;;;;;;;;5042213;28;20029;-71
2022/09/03 06:37:41;;;;;;;2.13;1.10;;;;;;;;;;5045337;28;20818;-71
2022/09/03 06:40:11;;;;;;;2.15;1.40;;;;;;;;;;5049186;28;20017;-71
2022/09/03 06:42:37;;;;;;;5.50;1.20;;;;;;;;;;5044841;28;20151;-69
2022/09/03 06:45:03;;;;;;;4.47;1.33;;;;;;;;;;5039016;28;20021;-70
2022/09/03 06:47:29;;;;;;;2.58;1.65;;;;;;;;;;5037556;28;20036;-70
2022/09/03 06:49:57;;;;;;;1.40;1.00;;;;;;;;;;5038363;28;20387;-68
2022/09/03 06:52:23;;;;;;;4.03;1.02;;;;;;;;;;5046376;28;20021;-70
2022/09/03 06:54:49;;;;;;;4.13;1.52;;;;;;;;;;5038546;28;20022;-69
2022/09/03 06:57:16;;;;;;;3.33;1.45;;;;;;;;;;5037337;28;20391;-71
2022/09/03 06:59:42;;;;;;;3.45;1.27;;;;;;;;;;5030305;28;20493;-69
2022/09/03 07:02:08;;;;;;;4.68;1.38;;;;;;;;;;5034471;28;20030;-71
2022/09/03 07:04:34;;;;;;;1.73;1.20;;;;;;;;;;5041945;28;20482;-71
2022/09/03 07:07:01;;;;;;;2.97;1.65;;;;;;;;;;5031592;28;20024;-72
2022/09/03 07:09:27;;;;;;;2.90;1.25;;;;;;;;;;5036182;28;20064;-70
2022/09/03 07:11:53;;;;;;;2.65;1.30;;;;;;;;;;5047600;28;20029;-70
2022/09/03 07:14:19;;;;;;;4.68;1.10;;;;;;;;;;5041622;28;20021;-69
2022/09/03 07:16:46;;;;;;;3.33;1.23;;;;;;;;;;5040492;28;20091;-70
2022/09/03 07:19:12;;;;;;;3.10;1.30;;;;;;;;;;5047694;28;20111;-69
2022/09/03 07:21:42;;;;;;;1.52;1.08;;;;;;;;;;5047765;28;20044;-70
2022/09/03 07:24:09;;;;;;;2.28;1.30;;;;;;;;;;5043886;28;20459;-70
2022/09/03 07:26:39;;;;;;;72.38;37.47;;;;;;;;;;5035511;28;20430;-70
2022/09/03 07:29:06;;;;;;;3.42;1.30;;;;;;;;;;5033398;28;20422;-70
2022/09/03 07:31:34;;;;;;;3.28;1.20;;;;;;;;;;5035752;28;20091;-70
2022/09/03 07:34:02;;;;;;;57.78;25.42;;;;;;;;;;5040357;28;20106;-69
2022/09/03 07:36:29;;;;;;;4.60;1.88;;;;;;;;;;5048730;28;20033;-70
2022/09/03 07:38:56;;;;;;;2.28;1.42;;;;;;;;;;5051726;28;20072;-69
2022/09/03 07:41:23;;;;;;;2.85;1.15;;;;;;;;;;5038408;28;20014;-70
2022/09/03 07:43:50;;;;;;;4.50;1.27;;;;;;;;;;5040018;28;20048;-68
2022/09/03 07:46:21;;;;;;;2.90;1.30;;;;;;;;;;5048707;28;20032;-70
2022/09/03 07:48:48;;;;;;;4.22;1.52;;;;;;;;;;5053033;28;20049;-70
2022/09/03 07:51:14;;;;;;;1.67;0.90;;;;;;;;;;5051135;28;20029;-70
2022/09/03 07:53:40;;;;;;;4.03;1.40;;;;;;;;;;5048253;28;20537;-69
2022/09/03 07:56:07;;;;;;;4.40;1.40;;;;;;;;;;5041953;28;20025;-71
2022/09/03 07:58:33;;;;;;;1.83;1.10;;;;;;;;;;5036288;28;20029;-68
2022/09/03 08:01:07;;;;;;;2.45;1.10;;;;;;;;;;5036563;28;20047;-70
2022/09/03 08:03:34;;;;;;;3.40;1.15;;;;;;;;;;5037203;28;20017;-71
2022/09/03 08:06:01;;;;;;;2.90;1.20;;;;;;;;;;5042510;28;20021;-70
2022/09/03 08:08:27;;;;;;;1.90;1.23;;;;;;;;;;5050090;28;20065;-70
2022/09/03 08:10:53;;;;;;;3.33;1.42;;;;;;;;;;5050764;28;20059;-70
2022/09/03 08:13:19;;;;;;;1.60;1.27;;;;;;;;;;5046260;28;20041;-71
2022/09/03 08:15:55;;;;;;;1.42;0.95;;;;;;;;;;5039817;28;20025;-69
2022/09/03 08:18:21;;;;;;;3.65;1.00;;;;;;;;;;5050985;28;20078;-70
2022/09/03 08:20:48;;;;;;;2.85;1.00;;;;;;;;;;5051551;28;20017;-70
2022/09/03 08:23:15;;;;;;;2.28;1.60;;;;;;;;;;5045876;28;20109;-69
2022/09/03 08:25:41;;;;;;;2.92;1.23;;;;;;;;;;5044065;28;20422;-69
2022/09/03 08:28:07;;;;;;;2.22;1.33;;;;;;;;;;5034276;28;20395;-70
2022/09/03 08:30:33;;;;;;;3.95;1.70;;;;;;;;;;5033990;28;20025;-69
2022/09/03 08:33:03;;;;;;;3.08;1.30;;;;;;;;;;5042355;28;20028;-68
2022/09/03 08:35:30;;;;;;;2.35;1.10;;;;;;;;;;5049511;28;20399;-69
2022/09/03 08:37:56;;;;;;;3.85;1.60;;;;;;;;;;5049964;28;20036;-68
2022/09/03 08:40:23;;;;;;;3.83;1.75;;;;;;;;;;5051216;28;20025;-68
2022/09/03 08:43:07;;;;;;;4.00;1.40;;;;;;;;;;5045402;28;20025;-70
2022/09/03 08:45:36;;;;;;;2.08;1.40;;;;;;;;;;5041850;28;20095;-69
2022/09/03 08:48:08;;;;;;;4.45;1.40;;;;;;;;;;5035123;28;20480;-69
2022/09/03 08:50:38;;;;;;;2.13;1.20;;;;;;;;;;5044958;28;20033;-70
2022/09/03 08:53:19;;;;;;;1.45;1.05;;;;;;;;;;5043981;28;20018;-71
2022/09/03 08:55:45;;;;;;;3.05;1.17;;;;;;;;;;5042728;28;20029;-70
2022/09/03 08:58:21;;;;;;;3.10;1.80;;;;;;;;;;5034152;28;20108;-70
2022/09/03 09:01:00;;;;;;;4.07;1.48;;;;;;;;;;5035110;28;20017;-69
2022/09/03 09:03:45;;;;;;;2.45;1.38;;;;;;;;;;5037564;28;20024;-70
2022/09/03 09:06:14;;;;;;;2.45;1.40;;;;;;;;;;5038299;28;20017;-69
2022/09/03 09:08:40;;;;;;;3.67;1.77;;;;;;;;;;5034615;28;20037;-69
2022/09/03 09:11:25;;;;;;;2.97;1.50;;;;;;;;;;5046046;28;20026;-69
2022/09/03 09:13:56;;;;;;;49.20;23.50;;;;;;;;;;5046445;28;20021;-70
2022/09/03 09:16:34;;;;;;;1.98;1.20;;;;;;;;;;5052527;28;20032;-70
2022/09/03 09:19:20;;;;;;;10.00;5.05;;;;;;;;;;5049553;28;20032;-69
2022/09/03 09:21:55;;;;;;;3.33;1.52;;;;;;;;;;5032657;28;20174;-70
2022/09/03 09:24:22;;;;;;;1.90;1.55;;;;;;;;;;5040054;28;20021;-69
2022/09/03 09:26:48;;;;;;;4.07;1.95;;;;;;;;;;5037700;28;20179;-70
2022/09/03 09:29:15;;;;;;;3.05;1.40;;;;;;;;;;5034881;28;20575;-68
2022/09/03 09:34:09;;;;;;;9.07;3.00;;;;;;;;;;5056761;22;20065;-71
2022/09/03 09:36:55;;;;;;;7.95;1.60;;;;;;;;;;5036823;28;20460;-72
2022/09/03 09:39:22;;;;;;;4.13;1.88;;;;;;;;;;5036842;28;20037;-73
2022/09/03 09:42:04;;;;;;;110.40;50.13;;;;;;;;;;5049120;28;20017;-73
2022/09/03 09:44:30;;;;;;;19.52;6.88;;;;;;;;;;5039711;28;20017;-71
2022/09/03 09:47:13;;;;;;;2.90;1.50;;;;;;;;;;5036965;28;20018;-72
2022/09/03 09:49:48;;;;;;;2.95;1.70;;;;;;;;;;5036281;28;20032;-72
2022/09/03 09:52:15;;;;;;;3.72;1.83;;;;;;;;;;5048663;28;20036;-72
2022/09/03 09:54:42;;;;;;;2.25;1.60;;;;;;;;;;5039535;28;20037;-72
2022/09/03 09:57:16;;;;;;;6.22;3.13;;;;;;;;;;5036165;28;20163;-71
2022/09/03 09:59:43;;;;;;;2.47;1.45;;;;;;;;;;5031694;28;20116;-72
2022/09/03 10:02:20;;;;;;;2.72;1.52;;;;;;;;;;5048186;28;20025;-71
2022/09/03 10:04:46;;;;;;;2.40;1.63;;;;;;;;;;5034002;28;20018;-73
2022/09/03 10:07:26;;;;;;;5.45;1.92;;;;;;;;;;5036515;28;20021;-74
2022/09/03 10:10:04;;;;;;;2.42;1.70;;;;;;;;;;5025969;28;20013;-72
2022/09/03 10:12:30;;;;;;;4.78;2.08;;;;;;;;;;5037459;28;20029;-72
2022/09/03 10:15:19;;;;;;;3.58;1.50;;;;;;;;;;5039309;28;20061;-72
2022/09/03 10:17:52;;;;;;;5.45;1.38;;;;;;;;;;5030840;28;20036;-72
2022/09/03 10:20:30;;;;;;;11.73;2.85;;;;;;;;;;5041982;28;20052;-73
2022/09/03 10:22:56;;;;;;;3.45;1.83;;;;;;;;;;5042567;28;20502;-72
2022/09/03 10:25:25;;;;;;;5.68;2.00;;;;;;;;;;5042140;28;20025;-73
2022/09/03 10:27:55;;;;;;;4.30;1.75;;;;;;;;;;5035556;28;20027;-73
2022/09/03 10:30:21;;;;;;;2.97;1.50;;;;;;;;;;5036780;28;20104;-73
2022/09/03 10:33:04;;;;;;;6.15;2.13;;;;;;;;;;5044446;28;20070;-72
2022/09/03 10:35:32;;;;;;;2.13;1.45;;;;;;;;;;5029428;28;20024;-72
2022/09/03 10:37:58;;;;;;;2.50;1.60;;;;;;;;;;5033850;28;20499;-73
2022/09/03 10:40:35;;;;;;;2.85;1.35;;;;;;;;;;5043754;28;20111;-72
2022/09/03 10:43:31;;;;;;;2.63;1.45;;;;;;;;;;5041830;28;20022;-72
2022/09/03 10:45:58;;;;;;;4.55;1.60;;;;;;;;;;5039936;28;20025;-72
2022/09/03 10:48:24;;;;;;;4.32;1.73;;;;;;;;;;5034758;28;20053;-73
2022/09/03 10:50:50;;;;;;;3.13;1.25;;;;;;;;;;5045810;28;20021;-72
2022/09/03 10:53:25;;;;;;;2.42;1.40;;;;;;;;;;5044761;28;20036;-72
2022/09/03 10:56:13;;;;;;;2.55;1.55;;;;;;;;;;5041987;28;20506;-72
2022/09/03 10:58:48;;;;;;;5.68;1.80;;;;;;;;;;5031748;28;20033;-72
2022/09/03 11:01:20;;;;;;;4.50;1.85;;;;;;;;;;5045410;28;20178;-72
2022/09/03 11:03:47;;;;;;;3.92;1.60;;;;;;;;;;5044528;28;20025;-72
2022/09/03 11:06:28;;;;;;;4.25;1.48;;;;;;;;;;5037184;28;20494;-72
2022/09/03 11:09:06;;;;;;;3.67;1.48;;;;;;;;;;5033087;28;20052;-72
2022/09/03 11:11:53;;;;;;;3.38;1.48;;;;;;;;;;5028916;28;20021;-72
2022/09/03 11:14:29;;;;;;;5.20;1.42;;;;;;;;;;5041545;28;20049;-72
2022/09/03 11:16:59;;;;;;;3.65;1.65;;;;;;;;;;5030998;28;20060;-72
2022/09/03 11:19:30;;;;;;;3.40;1.40;;;;;;;;;;5036367;28;20029;-73
2022/09/03 11:21:56;;;;;;;2.95;1.65;;;;;;;;;;5051470;28;20499;-72
2022/09/03 11:24:23;;;;;;;2.97;1.50;;;;;;;;;;5045005;28;20112;-72
2022/09/03 11:26:57;;;;;;;2.28;1.48;;;;;;;;;;5039860;28;20040;-72
2022/09/03 11:29:30;;;;;;;2.08;1.38;;;;;;;;;;5034106;28;20074;-72
2022/09/03 11:32:17;;;;;;;2.90;1.50;;;;;;;;;;5051130;28;20526;-72
2022/09/03 11:34:53;;;;;;;2.88;1.52;;;;;;;;;;5037137;28;20263;-72
2022/09/03 11:37:29;;;;;;;3.45;1.40;;;;;;;;;;5041094;28;20037;-72
2022/09/03 11:39:59;;;;;;;2.70;1.55;;;;;;;;;;5041734;28;20017;-73
2022/09/03 11:42:51;;;;;;;5.20;1.70;;;;;;;;;;5049603;28;20067;-71
2022/09/03 11:45:34;;;;;;;4.63;1.40;;;;;;;;;;5038563;28;20113;-72
2022/09/03 11:48:00;;;;;;;2.17;1.40;;;;;;;;;;5035244;28;20022;-71
2022/09/03 11:50:28;;;;;;;3.72;1.33;;;;;;;;;;5045930;28;20428;-72
2022/09/03 11:53:06;;;;;;;2.00;1.50;;;;;;;;;;5045579;28;20368;-72
2022/09/03 11:55:33;;;;;;;3.08;1.63;;;;;;;;;;5031946;28;20028;-72
2022/09/03 11:58:10;;;;;;;2.88;1.20;;;;;;;;;;5035978;28;20025;-72
2022/09/03 12:00:37;;;;;;;3.22;1.20;;;;;;;;;;5041625;28;20455;-72
2022/09/03 12:03:03;;;;;;;2.22;1.33;;;;;;;;;;5040213;28;20018;-71
2022/09/03 12:05:42;;;;;;;5.40;1.50;;;;;;;;;;5045194;28;20051;-72
2022/09/03 12:08:20;;;;;;;2.05;1.20;;;;;;;;;;5025047;28;20040;-72
2022/09/03 12:11:08;;;;;;;2.38;1.27;;;;;;;;;;5040966;28;20169;-72
2022/09/03 12:13:49;;;;;;;3.85;1.30;;;;;;;;;;5029176;28;20021;-72
2022/09/03 12:16:15;;;;;;;2.45;1.50;;;;;;;;;;5034645;28;20013;-72
2022/09/03 12:18:42;;;;;;;2.33;1.50;;;;;;;;;;5035438;28;20099;-72
2022/09/03 12:21:10;;;;;;;3.13;1.38;;;;;;;;;;5047734;28;20017;-72
2022/09/03 12:23:49;;;;;;;2.65;1.23;;;;;;;;;;5047671;28;20021;-72
2022/09/03 12:26:19;;;;;;;2.30;1.42;;;;;;;;;;5039356;28;20018;-72
2022/09/03 12:28:47;;;;;;;2.17;1.40;;;;;;;;;;5031802;28;20030;-72
2022/09/03 12:31:20;;;;;;;2.15;1.40;;;;;;;;;;5046651;28;20108;-72
2022/09/03 12:33:47;;;;;;;4.03;1.50;;;;;;;;;;5047432;28;20445;-73
2022/09/03 12:36:13;;;;;;;2.03;1.50;;;;;;;;;;5038221;28;20084;-71
2022/09/03 12:38:39;;;;;;;3.03;1.50;;;;;;;;;;5035474;28;20026;-73
2022/09/03 12:41:18;;;;;;;4.97;1.42;;;;;;;;;;5047003;28;20025;-72
2022/09/03 12:43:50;;;;;;;5.28;1.23;;;;;;;;;;5047244;28;20021;-73
2022/09/03 12:46:16;;;;;;;3.15;1.30;;;;;;;;;;5037445;28;20022;-72
2022/09/03 12:49:02;;;;;;;3.72;1.67;;;;;;;;;;5035450;28;20029;-72
2022/09/03 12:51:31;;;;;;;2.67;1.58;;;;;;;;;;5036888;28;20025;-72
2022/09/03 12:53:57;;;;;;;3.47;1.58;;;;;;;;;;5047106;28;20036;-72
2022/09/03 12:56:23;;;;;;;3.70;1.60;;;;;;;;;;5029891;28;20064;-72
2022/09/03 12:58:49;;;;;;;2.78;0.93;;;;;;;;;;5030573;28;20518;-73
2022/09/03 13:01:24;;;;;;;2.90;1.23;;;;;;;;;;5045802;28;20049;-72
2022/09/03 13:03:52;;;;;;;2.13;1.35;;;;;;;;;;5046813;28;20017;-72
2022/09/03 13:06:22;;;;;;;1.70;1.23;;;;;;;;;;5036988;28;20040;-72
2022/09/03 13:08:53;;;;;;;2.75;1.73;;;;;;;;;;5034726;28;20403;-72
2022/09/03 13:11:21;;;;;;;2.38;1.20;;;;;;;;;;5043227;28;20057;-72
2022/09/03 13:13:52;;;;;;;2.60;1.42;;;;;;;;;;5046562;28;20025;-71
2022/09/03 13:16:42;;;;;;;2.50;1.63;;;;;;;;;;5034051;28;20025;-72
2022/09/03 13:19:08;;;;;;;2.90;1.65;;;;;;;;;;4988631;28;20037;-72
2022/09/03 13:21:34;;;;;;;3.45;1.45;;;;;;;;;;5051168;28;20387;-72
2022/09/03 13:24:18;;;;;;;2.22;1.17;;;;;;;;;;5047701;28;20040;-72
2022/09/03 13:26:53;;;;;;;1.38;1.15;;;;;;;;;;5037183;28;20028;-72
2022/09/03 13:29:22;;;;;;;3.83;1.23;;;;;;;;;;5030145;28;20052;-72
2022/09/03 13:31:52;;;;;;;3.08;1.50;;;;;;;;;;5049139;28;20100;-72
2022/09/03 13:34:30;;;;;;;8.60;2.03;;;;;;;;;;5042209;28;20399;-72
2022/09/03 13:37:16;;;;;;;4.55;1.85;;;;;;;;;;5037675;28;20056;-72
2022/09/03 13:40:02;;;;;;;2.97;1.70;;;;;;;;;;5037851;28;20025;-72
2022/09/03 13:42:29;;;;;;;2.92;1.70;;;;;;;;;;5046813;28;20021;-72
2022/09/03 13:44:59;;;;;;;3.95;1.65;;;;;;;;;;5038443;28;20451;-71
2022/09/03 13:47:34;;;;;;;3.70;1.35;;;;;;;;;;5038788;28;20055;-73
2022/09/03 13:50:21;;;;;;;4.05;1.30;;;;;;;;;;5040657;28;20098;-72
2022/09/03 13:52:58;;;;;;;3.47;1.30;;;;;;;;;;5044695;28;20018;-71
2022/09/03 13:55:27;;;;;;;2.22;1.33;;;;;;;;;;5042894;28;20057;-72
2022/09/03 13:58:11;;;;;;;3.33;1.40;;;;;;;;;;5034995;28;20360;-72
2022/09/03 14:01:03;;;;;;;1.80;1.25;;;;;;;;;;5039559;28;20075;-73
2022/09/03 14:03:38;;;;;;;3.97;1.48;;;;;;;;;;5043146;28;20025;-72
2022/09/03 14:06:22;;;;;;;2.97;1.17;;;;;;;;;;5037925;28;20017;-72
2022/09/03 14:09:07;;;;;;;2.83;1.40;;;;;;;;;;5033745;28;20029;-72
2022/09/03 14:11:51;;;;;;;3.35;1.35;;;;;;;;;;5029732;28;20028;-73
2022/09/03 14:14:36;;;;;;;4.18;1.80;;;;;;;;;;5042468;28;20033;-72
2022/09/03 14:17:22;;;;;;;4.60;1.17;;;;;;;;;;5031304;28;20519;-72
2022/09/03 14:19:52;;;;;;;5.82;1.20;;;;;;;;;;5025042;28;20376;-73
2022/09/03 14:22:18;;;;;;;63.45;29.23;;;;;;;;;;5047754;28;20036;-72
2022/09/03 14:24:47;;;;;;;6.10;1.40;;;;;;;;;;5039183;28;20021;-72
2022/09/03 14:27:13;;;;;;;1.30;1.20;;;;;;;;;;5036341;28;20026;-72
2022/09/03 14:29:49;;;;;;;4.22;1.70;;;;;;;;;;5031212;28;20543;-72
2022/09/03 14:32:18;;;;;;;18.15;6.63;;;;;;;;;;5047784;28;20117;-72
2022/09/03 14:35:07;;;;;;;5.30;2.00;;;;;;;;;;5033585;28;20100;-72
2022/09/03 14:37:56;;;;;;;14.88;3.30;;;;;;;;;;5015745;28;20013;-72
2022/09/03 14:40:30;;;;;;;1.80;1.00;;;;;;;;;;5042164;28;20021;-72
2022/09/03 14:43:11;;;;;;;1.75;1.25;;;;;;;;;;5042391;28;20104;-72
2022/09/03 14:45:41;;;;;;;10.13;4.88;;;;;;;;;;5019932;28;20053;-73
2022/09/03 14:48:26;;;;;;;2.13;1.10;;;;;;;;;;5022352;28;20059;-72
2022/09/03 14:51:01;;;;;;;48.03;23.33;;;;;;;;;;5043891;28;20029;-72
2022/09/03 14:53:45;;;;;;;39.08;16.23;;;;;;;;;;5034321;28;20031;-72
2022/09/03 14:56:14;;;;;;;23.40;10.85;;;;;;;;;;5036060;28;20065;-73
2022/09/03 14:58:55;;;;;;;3.90;1.15;;;;;;;;;;5029548;28;20025;-72
2022/09/03 15:01:29;;;;;;;30.95;10.23;;;;;;;;;;5046110;28;20035;-74
2022/09/03 15:04:19;;;;;;;17.85;7.30;;;;;;;;;;5043480;28;20411;-71
2022/09/03 15:07:07;;;;;;;42.70;16.83;;;;;;;;;;5024804;28;20030;-72
2022/09/03 15:09:39;;;;;;;12.48;3.28;;;;;;;;;;5033772;28;20021;-72
2022/09/03 15:12:21;;;;;;;2.03;1.60;;;;;;;;;;5041484;28;20499;-72